sensor_id;sensor_type;location;lat;lon;timestamp;temperature;humidity
55492;DHT22;41354;52.990;6.878;2022-07-25T00:05:17;20.90;99.90
55492;DHT22;41354;52.990;6.878;2022-07-25T00:13:04;20.90;99.90
55492;DHT22;41354;52.990;6.878;2022-07-25T00:16:27;20.70;99.90
55492;DHT22;41354;52.990;6.878;2022-07-25T00:18:52;20.70;99.90
55492;DHT22;41354;52.990;6.878;2022-07-25T00:21:18;20.70;99.90
55492;DHT22;41354;52.990;6.878;2022-07-25T00:23:43;20.60;99.90
55492;DHT22;41354;52.990;6.878;2022-07-25T00:26:09;20.60;99.90
55492;DHT22;41354;52.990;6.878;2022-07-25T00:28:34;20.50;99.90
55492;DHT22;41354;52.990;6.878;2022-07-25T00:31:00;20.50;99.90
55492;DHT22;41354;52.990;6.878;2022-07-25T00:33:25;20.60;99.90
55492;DHT22;41354;52.990;6.878;2022-07-25T00:35:51;20.50;99.90
55492;DHT22;41354;52.990;6.878;2022-07-25T00:38:17;20.50;99.90
55492;DHT22;41354;52.990;6.878;2022-07-25T00:40:42;20.50;99.90
55492;DHT22;41354;52.990;6.878;2022-07-25T00:43:08;20.40;99.90
55492;DHT22;41354;52.990;6.878;2022-07-25T00:45:34;20.40;99.90
55492;DHT22;41354;52.990;6.878;2022-07-25T00:48:00;20.30;99.90
55492;DHT22;41354;52.990;6.878;2022-07-25T00:50:25;20.30;99.90
55492;DHT22;41354;52.990;6.878;2022-07-25T00:52:51;20.30;99.90
55492;DHT22;41354;52.990;6.878;2022-07-25T00:55:17;20.20;99.90
55492;DHT22;41354;52.990;6.878;2022-07-25T00:57:44;20.20;99.90
55492;DHT22;41354;52.990;6.878;2022-07-25T01:00:12;20.10;99.90
55492;DHT22;41354;52.990;6.878;2022-07-25T01:02:39;20.00;99.90
55492;DHT22;41354;52.990;6.878;2022-07-25T01:05:05;20.00;99.90
55492;DHT22;41354;52.990;6.878;2022-07-25T01:07:30;20.00;99.90
55492;DHT22;41354;52.990;6.878;2022-07-25T01:09:58;19.90;99.90
55492;DHT22;41354;52.990;6.878;2022-07-25T01:12:24;19.90;99.90
55492;DHT22;41354;52.990;6.878;2022-07-25T01:14:49;19.90;99.90
55492;DHT22;41354;52.990;6.878;2022-07-25T01:17:15;19.80;99.90
55492;DHT22;41354;52.990;6.878;2022-07-25T01:19:41;19.80;99.90
55492;DHT22;41354;52.990;6.878;2022-07-25T01:22:06;19.80;99.90
55492;DHT22;41354;52.990;6.878;2022-07-25T01:24:33;19.80;99.90
55492;DHT22;41354;52.990;6.878;2022-07-25T01:27:00;19.80;99.90
55492;DHT22;41354;52.990;6.878;2022-07-25T01:29:26;19.70;99.90
55492;DHT22;41354;52.990;6.878;2022-07-25T01:31:51;19.70;99.90
55492;DHT22;41354;52.990;6.878;2022-07-25T01:34:17;19.60;99.90
55492;DHT22;41354;52.990;6.878;2022-07-25T01:36:42;19.60;99.90
55492;DHT22;41354;52.990;6.878;2022-07-25T01:39:08;19.60;99.90
55492;DHT22;41354;52.990;6.878;2022-07-25T01:41:33;19.50;99.90
55492;DHT22;41354;52.990;6.878;2022-07-25T01:43:59;19.50;99.90
55492;DHT22;41354;52.990;6.878;2022-07-25T01:46:25;19.50;99.90
55492;DHT22;41354;52.990;6.878;2022-07-25T01:48:50;19.40;99.90
55492;DHT22;41354;52.990;6.878;2022-07-25T01:51:16;19.40;99.90
55492;DHT22;41354;52.990;6.878;2022-07-25T01:53:41;19.40;99.90
55492;DHT22;41354;52.990;6.878;2022-07-25T01:56:07;19.30;99.90
55492;DHT22;41354;52.990;6.878;2022-07-25T01:58:33;19.30;99.90
55492;DHT22;41354;52.990;6.878;2022-07-25T02:00:58;19.30;99.90
55492;DHT22;41354;52.990;6.878;2022-07-25T02:03:24;19.20;99.90
55492;DHT22;41354;52.990;6.878;2022-07-25T02:06:01;19.10;99.90
55492;DHT22;41354;52.990;6.878;2022-07-25T02:08:28;19.00;99.90
55492;DHT22;41354;52.990;6.878;2022-07-25T02:10:54;19.00;99.90
55492;DHT22;41354;52.990;6.878;2022-07-25T02:13:19;19.00;99.90
55492;DHT22;41354;52.990;6.878;2022-07-25T02:15:45;19.10;99.90
55492;DHT22;41354;52.990;6.878;2022-07-25T02:18:11;19.00;99.90
55492;DHT22;41354;52.990;6.878;2022-07-25T02:20:36;19.10;99.90
55492;DHT22;41354;52.990;6.878;2022-07-25T02:23:03;19.10;99.90
55492;DHT22;41354;52.990;6.878;2022-07-25T02:25:28;19.10;99.90
55492;DHT22;41354;52.990;6.878;2022-07-25T02:27:54;19.10;99.90
55492;DHT22;41354;52.990;6.878;2022-07-25T02:30:20;19.10;99.90
55492;DHT22;41354;52.990;6.878;2022-07-25T02:32:45;19.00;99.90
55492;DHT22;41354;52.990;6.878;2022-07-25T02:35:11;19.00;99.90
55492;DHT22;41354;52.990;6.878;2022-07-25T02:37:36;19.00;99.90
55492;DHT22;41354;52.990;6.878;2022-07-25T02:40:03;19.00;99.90
55492;DHT22;41354;52.990;6.878;2022-07-25T02:42:29;19.00;99.90
55492;DHT22;41354;52.990;6.878;2022-07-25T02:44:55;19.00;99.90
55492;DHT22;41354;52.990;6.878;2022-07-25T02:47:20;19.00;99.90
55492;DHT22;41354;52.990;6.878;2022-07-25T02:49:46;19.00;99.90
55492;DHT22;41354;52.990;6.878;2022-07-25T02:52:12;18.90;99.90
55492;DHT22;41354;52.990;6.878;2022-07-25T02:54:37;19.00;99.90
55492;DHT22;41354;52.990;6.878;2022-07-25T02:57:03;19.00;99.90
55492;DHT22;41354;52.990;6.878;2022-07-25T02:59:28;19.00;99.90
55492;DHT22;41354;52.990;6.878;2022-07-25T03:01:54;19.00;99.90
55492;DHT22;41354;52.990;6.878;2022-07-25T03:04:19;19.00;99.90
55492;DHT22;41354;52.990;6.878;2022-07-25T03:06:45;19.00;99.90
55492;DHT22;41354;52.990;6.878;2022-07-25T03:09:10;19.00;99.90
55492;DHT22;41354;52.990;6.878;2022-07-25T03:11:36;19.00;99.90
55492;DHT22;41354;52.990;6.878;2022-07-25T03:14:02;19.00;99.90
55492;DHT22;41354;52.990;6.878;2022-07-25T03:16:28;19.00;99.90
55492;DHT22;41354;52.990;6.878;2022-07-25T03:18:53;19.00;99.90
55492;DHT22;41354;52.990;6.878;2022-07-25T03:21:19;19.00;99.90
55492;DHT22;41354;52.990;6.878;2022-07-25T03:23:44;19.00;99.90
55492;DHT22;41354;52.990;6.878;2022-07-25T03:26:10;19.00;99.90
55492;DHT22;41354;52.990;6.878;2022-07-25T03:28:36;18.90;99.90
55492;DHT22;41354;52.990;6.878;2022-07-25T03:31:01;18.90;99.90
55492;DHT22;41354;52.990;6.878;2022-07-25T03:33:27;18.90;99.90
55492;DHT22;41354;52.990;6.878;2022-07-25T03:35:53;18.90;99.90
55492;DHT22;41354;52.990;6.878;2022-07-25T03:38:19;18.90;99.90
55492;DHT22;41354;52.990;6.878;2022-07-25T03:40:45;18.80;99.90
55492;DHT22;41354;52.990;6.878;2022-07-25T03:43:10;18.90;99.90
55492;DHT22;41354;52.990;6.878;2022-07-25T03:45:36;18.90;99.90
55492;DHT22;41354;52.990;6.878;2022-07-25T03:48:01;18.80;99.90
55492;DHT22;41354;52.990;6.878;2022-07-25T03:50:27;18.90;99.90
55492;DHT22;41354;52.990;6.878;2022-07-25T03:52:53;18.90;99.90
55492;DHT22;41354;52.990;6.878;2022-07-25T03:55:18;18.80;99.90
55492;DHT22;41354;52.990;6.878;2022-07-25T03:57:44;18.80;99.90
55492;DHT22;41354;52.990;6.878;2022-07-25T04:00:10;18.80;99.90
55492;DHT22;41354;52.990;6.878;2022-07-25T04:02:36;18.70;99.90
55492;DHT22;41354;52.990;6.878;2022-07-25T04:05:06;18.80;99.90
55492;DHT22;41354;52.990;6.878;2022-07-25T04:07:33;18.70;99.90
55492;DHT22;41354;52.990;6.878;2022-07-25T04:09:58;18.70;99.90
55492;DHT22;41354;52.990;6.878;2022-07-25T04:12:25;18.60;99.90
55492;DHT22;41354;52.990;6.878;2022-07-25T04:14:50;18.60;99.90
55492;DHT22;41354;52.990;6.878;2022-07-25T04:17:16;18.60;99.90
55492;DHT22;41354;52.990;6.878;2022-07-25T04:19:41;18.60;99.90
55492;DHT22;41354;52.990;6.878;2022-07-25T04:22:07;18.60;99.90
55492;DHT22;41354;52.990;6.878;2022-07-25T04:24:32;18.60;99.90
55492;DHT22;41354;52.990;6.878;2022-07-25T04:26:58;18.60;99.90
55492;DHT22;41354;52.990;6.878;2022-07-25T04:29:24;18.60;99.90
55492;DHT22;41354;52.990;6.878;2022-07-25T04:31:49;18.60;99.90
55492;DHT22;41354;52.990;6.878;2022-07-25T04:34:15;18.70;99.90
55492;DHT22;41354;52.990;6.878;2022-07-25T04:36:40;18.70;99.90
55492;DHT22;41354;52.990;6.878;2022-07-25T04:39:06;18.80;99.90
55492;DHT22;41354;52.990;6.878;2022-07-25T04:41:32;18.90;99.90
55492;DHT22;41354;52.990;6.878;2022-07-25T04:43:57;18.90;99.90
55492;DHT22;41354;52.990;6.878;2022-07-25T04:46:23;19.00;99.90
55492;DHT22;41354;52.990;6.878;2022-07-25T04:48:49;19.00;99.90
55492;DHT22;41354;52.990;6.878;2022-07-25T04:51:16;19.20;99.90
55492;DHT22;41354;52.990;6.878;2022-07-25T04:53:42;19.30;99.90
55492;DHT22;41354;52.990;6.878;2022-07-25T04:56:07;19.40;99.90
55492;DHT22;41354;52.990;6.878;2022-07-25T04:58:33;19.50;99.90
55492;DHT22;41354;52.990;6.878;2022-07-25T05:00:59;19.70;99.90
55492;DHT22;41354;52.990;6.878;2022-07-25T05:03:25;19.80;99.90
55492;DHT22;41354;52.990;6.878;2022-07-25T05:05:51;20.00;99.90
55492;DHT22;41354;52.990;6.878;2022-07-25T05:08:16;20.10;99.90
55492;DHT22;41354;52.990;6.878;2022-07-25T05:10:42;20.30;99.90
55492;DHT22;41354;52.990;6.878;2022-07-25T05:13:08;20.40;99.90
55492;DHT22;41354;52.990;6.878;2022-07-25T05:15:34;20.50;99.90
55492;DHT22;41354;52.990;6.878;2022-07-25T05:18:00;20.60;99.90
55492;DHT22;41354;52.990;6.878;2022-07-25T05:20:26;20.70;99.90
55492;DHT22;41354;52.990;6.878;2022-07-25T05:22:51;20.90;99.90
55492;DHT22;41354;52.990;6.878;2022-07-25T05:25:17;21.00;99.90
55492;DHT22;41354;52.990;6.878;2022-07-25T05:27:43;21.20;99.90
55492;DHT22;41354;52.990;6.878;2022-07-25T05:30:10;21.40;99.90
55492;DHT22;41354;52.990;6.878;2022-07-25T05:32:36;21.50;99.90
55492;DHT22;41354;52.990;6.878;2022-07-25T05:35:04;21.70;99.90
55492;DHT22;41354;52.990;6.878;2022-07-25T05:37:30;21.90;99.90
55492;DHT22;41354;52.990;6.878;2022-07-25T05:39:55;22.10;99.90
55492;DHT22;41354;52.990;6.878;2022-07-25T05:42:21;22.20;99.90
55492;DHT22;41354;52.990;6.878;2022-07-25T05:44:46;22.30;99.90
55492;DHT22;41354;52.990;6.878;2022-07-25T05:47:12;22.40;99.90
55492;DHT22;41354;52.990;6.878;2022-07-25T05:49:38;22.50;99.90
55492;DHT22;41354;52.990;6.878;2022-07-25T05:52:04;22.60;99.90
55492;DHT22;41354;52.990;6.878;2022-07-25T05:54:30;22.80;99.90
55492;DHT22;41354;52.990;6.878;2022-07-25T05:56:55;22.90;99.90
55492;DHT22;41354;52.990;6.878;2022-07-25T05:59:21;22.90;99.90
55492;DHT22;41354;52.990;6.878;2022-07-25T06:01:47;23.00;99.90
55492;DHT22;41354;52.990;6.878;2022-07-25T06:04:12;23.10;99.90
55492;DHT22;41354;52.990;6.878;2022-07-25T06:06:38;23.20;99.90
55492;DHT22;41354;52.990;6.878;2022-07-25T06:09:03;23.30;99.90
55492;DHT22;41354;52.990;6.878;2022-07-25T06:11:29;23.30;99.90
55492;DHT22;41354;52.990;6.878;2022-07-25T06:13:56;23.30;99.90
55492;DHT22;41354;52.990;6.878;2022-07-25T06:16:21;23.40;99.90
55492;DHT22;41354;52.990;6.878;2022-07-25T06:24:16;23.60;99.90
55492;DHT22;41354;52.990;6.878;2022-07-25T06:39:26;24.30;99.90
55492;DHT22;41354;52.990;6.878;2022-07-25T06:56:08;25.30;99.90
55492;DHT22;41354;52.990;6.878;2022-07-25T07:06:44;26.10;99.90
55492;DHT22;41354;52.990;6.878;2022-07-25T08:12:44;27.70;99.90
55492;DHT22;41354;52.990;6.878;2022-07-25T09:08:55;26.60;98.00
55492;DHT22;41354;52.990;6.878;2022-07-25T09:11:29;26.50;97.20
55492;DHT22;41354;52.990;6.878;2022-07-25T09:14:08;26.40;97.80
55492;DHT22;41354;52.990;6.878;2022-07-25T09:16:40;26.30;97.10
55492;DHT22;41354;52.990;6.878;2022-07-25T09:19:19;26.20;96.80
55492;DHT22;41354;52.990;6.878;2022-07-25T10:39:37;26.50;94.90
55492;DHT22;41354;52.990;6.878;2022-07-25T10:42:04;26.70;95.30
55492;DHT22;41354;52.990;6.878;2022-07-25T10:44:44;27.20;95.60
55492;DHT22;41354;52.990;6.878;2022-07-25T10:47:12;27.40;94.40
55492;DHT22;41354;52.990;6.878;2022-07-25T10:49:40;27.70;95.00
55492;DHT22;41354;52.990;6.878;2022-07-25T10:52:13;28.10;95.20
55492;DHT22;41354;52.990;6.878;2022-07-25T17:24:37;23.20;90.40
55492;DHT22;41354;52.990;6.878;2022-07-25T17:27:06;23.20;90.60
55492;DHT22;41354;52.990;6.878;2022-07-25T17:29:35;22.90;90.70
55492;DHT22;41354;52.990;6.878;2022-07-25T18:10:46;21.90;94.80
55492;DHT22;41354;52.990;6.878;2022-07-25T18:13:48;21.90;95.80
55492;DHT22;41354;52.990;6.878;2022-07-25T18:16:19;21.80;96.10
55492;DHT22;41354;52.990;6.878;2022-07-25T18:18:45;21.80;96.20
55492;DHT22;41354;52.990;6.878;2022-07-25T18:21:10;21.70;96.30
55492;DHT22;41354;52.990;6.878;2022-07-25T18:23:36;21.70;96.50
55492;DHT22;41354;52.990;6.878;2022-07-25T18:26:02;21.60;96.80
55492;DHT22;41354;52.990;6.878;2022-07-25T18:28:27;21.60;97.20
55492;DHT22;41354;52.990;6.878;2022-07-25T18:30:53;21.60;97.30
55492;DHT22;41354;52.990;6.878;2022-07-25T18:33:19;21.60;97.40
55492;DHT22;41354;52.990;6.878;2022-07-25T18:35:48;21.50;97.50
55492;DHT22;41354;52.990;6.878;2022-07-25T18:38:14;21.50;97.80
55492;DHT22;41354;52.990;6.878;2022-07-25T18:40:40;21.40;97.90
55492;DHT22;41354;52.990;6.878;2022-07-25T18:43:06;21.40;98.20
55492;DHT22;41354;52.990;6.878;2022-07-25T18:45:31;21.40;98.60
55492;DHT22;41354;52.990;6.878;2022-07-25T18:47:58;21.30;98.60
55492;DHT22;41354;52.990;6.878;2022-07-25T18:50:24;21.30;98.90
55492;DHT22;41354;52.990;6.878;2022-07-25T18:52:49;21.30;99.20
55492;DHT22;41354;52.990;6.878;2022-07-25T18:55:15;21.30;99.30
55492;DHT22;41354;52.990;6.878;2022-07-25T18:57:40;21.30;99.50
55492;DHT22;41354;52.990;6.878;2022-07-25T19:00:07;21.20;99.70
55492;DHT22;41354;52.990;6.878;2022-07-25T19:02:33;21.20;99.90
55492;DHT22;41354;52.990;6.878;2022-07-25T19:04:58;21.20;99.90
55492;DHT22;41354;52.990;6.878;2022-07-25T19:07:24;21.10;99.90
55492;DHT22;41354;52.990;6.878;2022-07-25T19:09:50;21.10;99.90
55492;DHT22;41354;52.990;6.878;2022-07-25T19:12:16;21.00;99.90
55492;DHT22;41354;52.990;6.878;2022-07-25T19:14:41;21.00;99.90
55492;DHT22;41354;52.990;6.878;2022-07-25T19:17:07;21.00;99.90
55492;DHT22;41354;52.990;6.878;2022-07-25T19:19:33;20.90;99.90
55492;DHT22;41354;52.990;6.878;2022-07-25T19:21:59;20.90;99.90
55492;DHT22;41354;52.990;6.878;2022-07-25T19:24:24;20.90;99.90
55492;DHT22;41354;52.990;6.878;2022-07-25T19:26:50;20.90;99.90
55492;DHT22;41354;52.990;6.878;2022-07-25T19:29:16;20.90;99.90
55492;DHT22;41354;52.990;6.878;2022-07-25T19:31:43;20.80;99.90
55492;DHT22;41354;52.990;6.878;2022-07-25T19:34:08;20.80;99.90
55492;DHT22;41354;52.990;6.878;2022-07-25T19:36:34;20.70;99.90
55492;DHT22;41354;52.990;6.878;2022-07-25T19:39:00;20.70;99.90
55492;DHT22;41354;52.990;6.878;2022-07-25T19:41:26;20.60;99.90
55492;DHT22;41354;52.990;6.878;2022-07-25T19:43:52;20.60;99.90
55492;DHT22;41354;52.990;6.878;2022-07-25T19:46:19;20.60;99.90
55492;DHT22;41354;52.990;6.878;2022-07-25T19:48:44;20.60;99.90
55492;DHT22;41354;52.990;6.878;2022-07-25T19:51:10;20.50;99.90
55492;DHT22;41354;52.990;6.878;2022-07-25T19:53:36;20.50;99.90
55492;DHT22;41354;52.990;6.878;2022-07-25T19:56:02;20.40;99.90
55492;DHT22;41354;52.990;6.878;2022-07-25T19:58:27;20.40;99.90
55492;DHT22;41354;52.990;6.878;2022-07-25T20:00:53;20.40;99.90
55492;DHT22;41354;52.990;6.878;2022-07-25T20:03:19;20.40;99.90
55492;DHT22;41354;52.990;6.878;2022-07-25T20:05:44;20.40;99.90
55492;DHT22;41354;52.990;6.878;2022-07-25T20:08:10;20.30;99.90
55492;DHT22;41354;52.990;6.878;2022-07-25T20:10:39;20.30;99.90
55492;DHT22;41354;52.990;6.878;2022-07-25T20:13:04;20.30;99.90
55492;DHT22;41354;52.990;6.878;2022-07-25T20:15:30;20.30;99.90
55492;DHT22;41354;52.990;6.878;2022-07-25T20:17:57;20.20;99.90
55492;DHT22;41354;52.990;6.878;2022-07-25T20:20:23;20.20;99.90
55492;DHT22;41354;52.990;6.878;2022-07-25T20:22:49;20.20;99.90
55492;DHT22;41354;52.990;6.878;2022-07-25T20:25:15;20.20;99.90
55492;DHT22;41354;52.990;6.878;2022-07-25T20:27:40;20.20;99.90
55492;DHT22;41354;52.990;6.878;2022-07-25T20:30:07;20.20;99.90
55492;DHT22;41354;52.990;6.878;2022-07-25T20:32:33;20.20;99.90
55492;DHT22;41354;52.990;6.878;2022-07-25T20:34:59;20.10;99.90
55492;DHT22;41354;52.990;6.878;2022-07-25T20:37:25;20.10;99.90
55492;DHT22;41354;52.990;6.878;2022-07-25T20:39:50;20.10;99.90
55492;DHT22;41354;52.990;6.878;2022-07-25T20:42:16;20.10;99.90
55492;DHT22;41354;52.990;6.878;2022-07-25T20:44:42;20.10;99.90
55492;DHT22;41354;52.990;6.878;2022-07-25T20:47:07;20.10;99.90
55492;DHT22;41354;52.990;6.878;2022-07-25T20:49:34;20.10;99.90
55492;DHT22;41354;52.990;6.878;2022-07-25T20:52:01;19.90;99.90
55492;DHT22;41354;52.990;6.878;2022-07-25T20:54:26;20.00;99.90
55492;DHT22;41354;52.990;6.878;2022-07-25T20:56:52;20.00;99.90
55492;DHT22;41354;52.990;6.878;2022-07-25T20:59:17;20.00;99.90
55492;DHT22;41354;52.990;6.878;2022-07-25T21:01:43;20.00;99.90
55492;DHT22;41354;52.990;6.878;2022-07-25T21:04:08;20.00;99.90
55492;DHT22;41354;52.990;6.878;2022-07-25T21:06:34;20.00;99.90
55492;DHT22;41354;52.990;6.878;2022-07-25T21:09:00;19.90;99.90
55492;DHT22;41354;52.990;6.878;2022-07-25T21:11:25;19.90;99.90
55492;DHT22;41354;52.990;6.878;2022-07-25T21:13:51;19.90;99.90
55492;DHT22;41354;52.990;6.878;2022-07-25T21:16:16;19.90;99.90
55492;DHT22;41354;52.990;6.878;2022-07-25T21:18:42;19.90;99.90
55492;DHT22;41354;52.990;6.878;2022-07-25T21:21:08;19.80;99.90
55492;DHT22;41354;52.990;6.878;2022-07-25T21:23:34;19.80;99.90
55492;DHT22;41354;52.990;6.878;2022-07-25T21:26:00;19.80;99.90
55492;DHT22;41354;52.990;6.878;2022-07-25T21:28:26;19.70;99.90
55492;DHT22;41354;52.990;6.878;2022-07-25T21:30:51;19.70;99.90
55492;DHT22;41354;52.990;6.878;2022-07-25T21:33:17;19.70;99.90
55492;DHT22;41354;52.990;6.878;2022-07-25T21:35:43;19.60;99.90
55492;DHT22;41354;52.990;6.878;2022-07-25T21:38:08;19.60;99.90
55492;DHT22;41354;52.990;6.878;2022-07-25T21:40:34;19.60;99.90
55492;DHT22;41354;52.990;6.878;2022-07-25T21:43:00;19.50;99.90
55492;DHT22;41354;52.990;6.878;2022-07-25T21:45:26;19.50;99.90
55492;DHT22;41354;52.990;6.878;2022-07-25T21:47:52;19.50;99.90
55492;DHT22;41354;52.990;6.878;2022-07-25T21:50:17;19.50;99.90
55492;DHT22;41354;52.990;6.878;2022-07-25T21:53:06;19.40;99.90
55492;DHT22;41354;52.990;6.878;2022-07-25T21:55:33;19.30;99.90
55492;DHT22;41354;52.990;6.878;2022-07-25T21:57:58;19.30;99.90
55492;DHT22;41354;52.990;6.878;2022-07-25T22:00:25;19.30;99.90
55492;DHT22;41354;52.990;6.878;2022-07-25T22:02:50;19.20;99.90
55492;DHT22;41354;52.990;6.878;2022-07-25T22:05:17;19.20;99.90
55492;DHT22;41354;52.990;6.878;2022-07-25T22:07:43;19.20;99.90
55492;DHT22;41354;52.990;6.878;2022-07-25T22:10:10;19.10;99.90
55492;DHT22;41354;52.990;6.878;2022-07-25T22:12:37;19.00;99.90
55492;DHT22;41354;52.990;6.878;2022-07-25T22:15:04;19.00;99.90
55492;DHT22;41354;52.990;6.878;2022-07-25T22:17:30;18.90;99.90
55492;DHT22;41354;52.990;6.878;2022-07-25T22:19:55;18.80;99.90
55492;DHT22;41354;52.990;6.878;2022-07-25T22:22:21;18.90;99.90
55492;DHT22;41354;52.990;6.878;2022-07-25T22:24:46;18.90;99.90
55492;DHT22;41354;52.990;6.878;2022-07-25T22:27:12;18.80;99.90
55492;DHT22;41354;52.990;6.878;2022-07-25T22:29:38;18.80;99.90
55492;DHT22;41354;52.990;6.878;2022-07-25T22:32:03;18.80;99.90
55492;DHT22;41354;52.990;6.878;2022-07-25T22:34:29;18.80;99.90
55492;DHT22;41354;52.990;6.878;2022-07-25T22:36:55;18.80;99.90
55492;DHT22;41354;52.990;6.878;2022-07-25T22:39:21;18.80;99.90
55492;DHT22;41354;52.990;6.878;2022-07-25T22:41:46;18.80;99.90
55492;DHT22;41354;52.990;6.878;2022-07-25T22:44:12;18.80;99.90
55492;DHT22;41354;52.990;6.878;2022-07-25T22:46:38;18.90;99.90
55492;DHT22;41354;52.990;6.878;2022-07-25T22:49:04;18.90;99.90
55492;DHT22;41354;52.990;6.878;2022-07-25T22:51:29;18.90;99.90
55492;DHT22;41354;52.990;6.878;2022-07-25T22:53:56;18.90;99.90
55492;DHT22;41354;52.990;6.878;2022-07-25T22:56:22;18.90;99.90
55492;DHT22;41354;52.990;6.878;2022-07-25T22:58:48;18.90;99.90
55492;DHT22;41354;52.990;6.878;2022-07-25T23:01:14;18.90;99.90
55492;DHT22;41354;52.990;6.878;2022-07-25T23:03:39;18.90;99.90
55492;DHT22;41354;52.990;6.878;2022-07-25T23:06:05;18.90;99.90
55492;DHT22;41354;52.990;6.878;2022-07-25T23:08:31;19.00;99.90
55492;DHT22;41354;52.990;6.878;2022-07-25T23:10:56;19.00;99.90
55492;DHT22;41354;52.990;6.878;2022-07-25T23:13:22;19.00;99.90
55492;DHT22;41354;52.990;6.878;2022-07-25T23:15:48;19.00;99.90
55492;DHT22;41354;52.990;6.878;2022-07-25T23:18:13;19.10;99.90
55492;DHT22;41354;52.990;6.878;2022-07-25T23:20:39;19.00;99.90
55492;DHT22;41354;52.990;6.878;2022-07-25T23:23:04;19.00;99.90
55492;DHT22;41354;52.990;6.878;2022-07-25T23:25:30;19.00;99.90
55492;DHT22;41354;52.990;6.878;2022-07-25T23:27:55;19.00;99.90
55492;DHT22;41354;52.990;6.878;2022-07-25T23:30:21;19.00;99.90
55492;DHT22;41354;52.990;6.878;2022-07-25T23:32:47;19.00;99.90
55492;DHT22;41354;52.990;6.878;2022-07-25T23:35:12;19.00;99.90
55492;DHT22;41354;52.990;6.878;2022-07-25T23:37:38;19.00;99.90
55492;DHT22;41354;52.990;6.878;2022-07-25T23:40:04;19.00;99.90
55492;DHT22;41354;52.990;6.878;2022-07-25T23:42:30;19.00;99.90
55492;DHT22;41354;52.990;6.878;2022-07-25T23:44:56;19.00;99.90
55492;DHT22;41354;52.990;6.878;2022-07-25T23:47:21;18.90;99.90
55492;DHT22;41354;52.990;6.878;2022-07-25T23:49:47;18.80;99.90
55492;DHT22;41354;52.990;6.878;2022-07-25T23:52:13;18.80;99.90
55492;DHT22;41354;52.990;6.878;2022-07-25T23:54:38;18.80;99.90
55492;DHT22;41354;52.990;6.878;2022-07-25T23:57:05;18.70;99.90
55492;DHT22;41354;52.990;6.878;2022-07-25T23:59:32;18.70;99.90
